createdAt,value
2022-12-01T00:00:39.332Z,6.50
2022-12-01T00:01:40.831Z,6.93
2022-12-01T00:02:42.398Z,7.03
2022-12-01T00:03:44.139Z,6.78
2022-12-01T00:04:48.504Z,6.72
2022-12-01T00:06:05.476Z,6.53
2022-12-01T00:07:06.882Z,6.53
2022-12-01T00:08:08.420Z,6.78
2022-12-01T00:09:28.509Z,6.63
2022-12-01T00:10:29.905Z,6.68
2022-12-01T00:11:32.235Z,6.93
2022-12-01T00:12:33.643Z,6.70
2022-12-01T00:13:36.171Z,6.50
2022-12-01T00:14:38.076Z,6.75
2022-12-01T00:15:39.516Z,6.63
2022-12-01T00:16:41.158Z,6.72
2022-12-01T00:17:44.000Z,7.07
2022-12-01T00:18:50.069Z,6.75
2022-12-01T00:19:51.526Z,6.95
2022-12-01T00:20:56.041Z,6.72
2022-12-01T00:21:57.652Z,7.38
2022-12-01T00:22:59.413Z,7.10
2022-12-01T00:24:01.043Z,6.75
2022-12-01T00:25:02.533Z,7.55
2022-12-01T00:26:06.719Z,7.03
2022-12-01T00:27:08.144Z,7.60
2022-12-01T00:28:09.671Z,6.95
2022-12-01T00:29:11.857Z,7.45
2022-12-01T00:30:13.738Z,7.20
2022-12-01T00:31:15.536Z,8.68
2022-12-01T00:32:17.124Z,11.70
2022-12-01T00:33:18.586Z,11.48
2022-12-01T00:34:25.524Z,12.48
2022-12-01T00:35:27.021Z,11.55
2022-12-01T00:36:28.597Z,10.18
2022-12-01T00:37:31.686Z,9.52
2022-12-01T00:38:33.496Z,8.32
2022-12-01T00:39:35.003Z,7.75
2022-12-01T00:40:36.505Z,7.88
2022-12-01T00:41:37.932Z,7.75
2022-12-01T00:42:39.366Z,7.28
2022-12-01T00:43:40.829Z,7.22
2022-12-01T00:44:42.648Z,7.68
2022-12-01T00:45:44.189Z,7.80
2022-12-01T00:46:45.650Z,7.82
2022-12-01T00:47:47.088Z,7.72
2022-12-01T00:48:48.894Z,7.53
2022-12-01T00:49:52.341Z,7.18
2022-12-01T00:50:55.019Z,7.25
2022-12-01T00:51:56.530Z,7.57
2022-12-01T00:52:57.958Z,7.30
2022-12-01T00:53:59.632Z,6.78
2022-12-01T00:55:01.175Z,7.03
2022-12-01T00:56:02.657Z,6.82
2022-12-01T00:57:04.127Z,7.18
2022-12-01T00:58:05.587Z,7.72
2022-12-01T00:59:07.385Z,7.55
2022-12-01T01:00:09.730Z,7.75
2022-12-01T01:01:11.255Z,7.40
2022-12-01T01:02:12.922Z,7.85
2022-12-01T01:03:14.445Z,7.40
2022-12-01T01:04:15.955Z,7.40
2022-12-01T01:05:17.440Z,7.22
2022-12-01T01:06:18.939Z,8.00
2022-12-01T01:07:21.729Z,7.30
2022-12-01T01:08:23.238Z,7.78
2022-12-01T01:09:26.362Z,6.93
2022-12-01T01:10:27.786Z,7.40
2022-12-01T01:11:29.215Z,7.50
2022-12-01T01:12:31.054Z,7.55
2022-12-01T01:13:33.319Z,7.47
2022-12-01T01:14:34.894Z,7.95
2022-12-01T01:15:36.717Z,7.50
2022-12-01T01:16:38.551Z,7.15
2022-12-01T01:17:40.065Z,7.53
2022-12-01T01:18:41.756Z,7.70
2022-12-01T01:19:43.214Z,8.05
2022-12-01T01:20:44.660Z,8.38
2022-12-01T01:21:46.144Z,7.95
2022-12-01T01:22:47.613Z,7.45
2022-12-01T01:23:50.400Z,7.20
2022-12-01T01:24:51.823Z,7.90
2022-12-01T01:25:53.274Z,6.97
2022-12-01T01:26:55.395Z,7.72
2022-12-01T01:27:56.817Z,7.28
2022-12-01T01:29:01.622Z,8.20
2022-12-01T01:30:04.110Z,7.60
2022-12-01T01:31:14.238Z,8.05
2022-12-01T01:32:15.741Z,7.50
2022-12-01T01:33:17.537Z,7.30
2022-12-01T01:34:19.025Z,6.85
2022-12-01T01:35:20.461Z,7.82
2022-12-01T01:36:22.637Z,8.05
2022-12-01T01:37:24.164Z,7.97
2022-12-01T01:38:26.475Z,7.53
2022-12-01T01:39:28.130Z,7.75
2022-12-01T01:40:29.570Z,7.65
2022-12-01T01:41:31.151Z,7.45
2022-12-01T01:42:32.593Z,7.82
2022-12-01T01:43:58.818Z,7.95
2022-12-01T01:45:00.308Z,7.60
2022-12-01T01:46:01.851Z,7.85
2022-12-01T01:47:03.393Z,8.15
2022-12-01T01:48:05.368Z,8.25
2022-12-01T01:49:09.741Z,8.07
2022-12-01T01:50:14.832Z,7.70
2022-12-01T01:51:19.528Z,7.63
2022-12-01T01:52:22.794Z,8.18
2022-12-01T01:53:24.621Z,8.10
2022-12-01T01:54:35.237Z,8.13
2022-12-01T01:55:36.981Z,8.32
2022-12-01T01:56:38.455Z,7.97
2022-12-01T01:57:40.631Z,8.13
2022-12-01T01:58:42.533Z,8.25
2022-12-01T01:59:49.794Z,7.30
2022-12-01T02:00:51.470Z,7.47
2022-12-01T02:02:03.488Z,7.82
2022-12-01T02:03:05.308Z,8.00
2022-12-01T02:04:07.415Z,8.27
2022-12-01T02:05:11.921Z,8.02
2022-12-01T02:06:13.954Z,8.10
2022-12-01T02:07:19.093Z,8.23
2022-12-01T02:08:20.708Z,7.53
2022-12-01T02:09:22.146Z,7.75
2022-12-01T02:10:43.260Z,8.40
2022-12-01T02:12:11.583Z,7.47
2022-12-01T02:13:24.522Z,7.70
2022-12-01T02:14:43.453Z,7.40
2022-12-01T02:15:47.522Z,7.55
2022-12-01T02:17:01.185Z,7.80
2022-12-01T02:18:25.109Z,8.60
2022-12-01T02:20:17.625Z,7.25
2022-12-01T02:21:35.246Z,7.85
2022-12-01T02:23:00.341Z,7.75
2022-12-01T02:24:25.881Z,7.78
2022-12-01T02:25:45.306Z,8.05
2022-12-01T02:26:52.949Z,8.00
2022-12-01T02:28:16.089Z,8.10
2022-12-01T02:30:08.886Z,7.60
2022-12-01T02:31:22.761Z,8.20
2022-12-01T02:32:33.571Z,7.97
2022-12-01T02:33:51.336Z,7.95
2022-12-01T02:35:07.551Z,8.05
2022-12-01T02:36:20.451Z,7.95
2022-12-01T02:37:37.665Z,8.55
2022-12-01T02:38:44.990Z,8.10
2022-12-01T02:40:11.541Z,7.65
2022-12-01T02:41:24.430Z,8.52
2022-12-01T02:42:54.707Z,8.18
2022-12-01T02:44:03.390Z,7.85
2022-12-01T02:45:10.456Z,7.60
2022-12-01T02:46:18.359Z,8.40
2022-12-01T02:47:20.615Z,7.53
2022-12-01T02:48:28.794Z,7.72
2022-12-01T02:49:36.050Z,7.55
2022-12-01T02:50:39.848Z,8.20
2022-12-01T02:51:46.744Z,7.60
2022-12-01T02:52:49.346Z,7.50
2022-12-01T02:53:51.606Z,8.27
2022-12-01T02:54:53.352Z,7.93
2022-12-01T02:55:58.894Z,7.85
2022-12-01T02:57:00.308Z,7.80
2022-12-01T02:58:02.144Z,7.55
2022-12-01T02:59:10.466Z,7.78
2022-12-01T03:00:13.785Z,8.10
2022-12-01T03:01:38.046Z,7.05
2022-12-01T03:02:48.557Z,7.53
2022-12-01T03:04:21.872Z,7.85
2022-12-01T03:05:40.701Z,7.63
2022-12-01T03:06:42.257Z,7.53
2022-12-01T03:08:07.259Z,7.93
2022-12-01T03:09:14.847Z,8.02
2022-12-01T03:10:28.292Z,7.80
2022-12-01T03:11:43.413Z,7.43
2022-12-01T03:12:51.778Z,7.70
2022-12-01T03:14:29.305Z,8.05
2022-12-01T03:15:48.548Z,7.47
2022-12-01T03:16:52.659Z,7.43
2022-12-01T03:18:04.327Z,7.97
2022-12-01T03:19:13.951Z,7.00
2022-12-01T03:20:30.927Z,8.05
2022-12-01T03:21:42.242Z,7.10
2022-12-01T03:22:53.957Z,7.20
2022-12-01T03:24:01.176Z,7.60
2022-12-01T03:25:04.329Z,7.20
2022-12-01T03:26:09.448Z,7.25
2022-12-01T03:27:13.671Z,7.53
2022-12-01T03:28:21.543Z,8.27
2022-12-01T03:29:28.507Z,7.70
2022-12-01T03:30:35.020Z,7.65
2022-12-01T03:31:42.611Z,8.20
2022-12-01T03:32:49.047Z,7.93
2022-12-01T03:33:56.811Z,7.53
2022-12-01T03:35:08.893Z,8.18
2022-12-01T03:36:16.602Z,8.13
2022-12-01T03:37:26.235Z,7.63
2022-12-01T03:38:30.349Z,8.05
2022-12-01T03:39:35.032Z,8.13
2022-12-01T03:40:38.715Z,7.93
2022-12-01T03:41:50.412Z,8.13
2022-12-01T03:43:07.414Z,8.25
2022-12-01T03:44:15.613Z,7.45
2022-12-01T03:45:29.602Z,8.75
2022-12-01T03:46:44.453Z,7.65
2022-12-01T03:47:46.106Z,7.88
2022-12-01T03:48:47.806Z,7.28
2022-12-01T03:49:52.854Z,7.35
2022-12-01T03:51:14.626Z,7.55
2022-12-01T03:52:26.380Z,7.22
2022-12-01T03:53:38.228Z,7.38
2022-12-01T03:54:45.377Z,7.85
2022-12-01T03:55:54.569Z,7.60
2022-12-01T03:58:26.036Z,7.60
2022-12-01T03:59:29.215Z,8.57
2022-12-01T04:00:34.454Z,8.00
2022-12-01T04:01:36.578Z,7.80
2022-12-01T04:02:38.456Z,7.53
2022-12-01T04:03:40.488Z,8.38
2022-12-01T04:04:41.951Z,8.43
2022-12-01T04:05:43.879Z,8.02
2022-12-01T04:06:49.979Z,8.63
2022-12-01T04:07:51.511Z,7.90
2022-12-01T04:08:52.962Z,8.00
2022-12-01T04:09:54.763Z,7.20
2022-12-01T04:10:57.247Z,7.72
2022-12-01T04:12:17.094Z,8.52
2022-12-01T04:13:24.330Z,8.13
2022-12-01T04:14:25.834Z,8.38
2022-12-01T04:15:28.500Z,8.27
2022-12-01T04:16:30.009Z,8.48
2022-12-01T04:17:32.040Z,8.18
2022-12-01T04:18:33.449Z,7.68
2022-12-01T04:19:34.890Z,8.15
2022-12-01T04:20:36.646Z,7.68
2022-12-01T04:21:38.113Z,7.03
2022-12-01T04:22:40.062Z,8.20
2022-12-01T04:24:00.236Z,7.63
2022-12-01T04:25:02.312Z,7.47
2022-12-01T04:26:04.919Z,7.88
2022-12-01T04:27:06.342Z,7.78
2022-12-01T04:28:07.995Z,7.93
2022-12-01T04:29:10.935Z,7.30
2022-12-01T04:30:13.082Z,7.68
2022-12-01T04:31:14.573Z,8.45
2022-12-01T04:32:16.498Z,7.57
2022-12-01T04:33:18.070Z,8.02
2022-12-01T04:34:19.575Z,7.15
2022-12-01T04:35:21.311Z,7.70
2022-12-01T04:36:24.117Z,7.68
2022-12-01T04:37:25.578Z,7.53
2022-12-01T04:38:30.791Z,7.50
2022-12-01T04:39:32.592Z,7.35
2022-12-01T04:40:34.354Z,7.57
2022-12-01T04:41:35.777Z,8.13
2022-12-01T04:42:37.297Z,6.72
2022-12-01T04:43:38.920Z,7.32
2022-12-01T04:44:40.395Z,7.90
2022-12-01T04:45:42.340Z,7.82
2022-12-01T04:46:43.928Z,8.02
2022-12-01T04:47:45.382Z,7.38
2022-12-01T04:48:46.874Z,7.70
2022-12-01T04:49:48.952Z,7.60
2022-12-01T04:50:50.701Z,8.10
2022-12-01T04:51:52.182Z,7.75
2022-12-01T04:52:54.119Z,7.43
2022-12-01T04:53:55.546Z,7.97
2022-12-01T04:55:08.909Z,7.63
2022-12-01T04:56:10.563Z,6.97
2022-12-01T04:57:12.056Z,7.63
2022-12-01T04:58:13.537Z,8.20
2022-12-01T04:59:16.062Z,7.25
2022-12-01T05:00:18.519Z,8.05
2022-12-01T05:01:23.327Z,12.32
2022-12-01T05:02:24.948Z,16.90
2022-12-01T05:03:26.487Z,16.58
2022-12-01T05:04:27.944Z,15.63
2022-12-01T05:05:30.395Z,13.13
2022-12-01T05:06:31.863Z,11.98
2022-12-01T05:07:33.357Z,10.05
2022-12-01T05:08:34.863Z,8.60
2022-12-01T05:09:36.428Z,8.65
2022-12-01T05:10:38.541Z,8.68
2022-12-01T05:11:40.078Z,8.23
2022-12-01T05:12:41.498Z,8.10
2022-12-01T05:13:45.116Z,7.38
2022-12-01T05:14:46.859Z,8.10
2022-12-01T05:15:48.266Z,7.50
2022-12-01T05:16:49.786Z,7.43
2022-12-01T05:17:51.222Z,8.15
2022-12-01T05:19:14.254Z,7.55
2022-12-01T05:20:40.484Z,7.03
2022-12-01T05:21:43.744Z,7.90
2022-12-01T05:23:04.929Z,7.53
2022-12-01T05:24:07.984Z,7.43
2022-12-01T05:25:09.403Z,7.50
2022-12-01T05:26:11.479Z,7.40
2022-12-01T05:27:12.892Z,7.72
2022-12-01T05:28:14.327Z,7.82
2022-12-01T05:29:18.254Z,7.93
2022-12-01T05:30:23.106Z,7.68
2022-12-01T05:31:28.496Z,7.63
2022-12-01T05:32:29.924Z,7.88
2022-12-01T05:33:31.426Z,7.68
2022-12-01T05:34:33.169Z,8.13
2022-12-01T05:35:34.729Z,7.97
2022-12-01T05:36:36.483Z,7.82
2022-12-01T05:37:37.914Z,8.48
2022-12-01T05:38:39.371Z,8.73
2022-12-01T05:39:41.123Z,8.30
2022-12-01T05:40:42.780Z,8.23
2022-12-01T05:41:44.192Z,7.25
2022-12-01T05:42:45.614Z,7.20
2022-12-01T05:43:47.156Z,7.57
2022-12-01T05:44:48.642Z,7.50
2022-12-01T05:45:50.297Z,7.03
2022-12-01T05:46:51.798Z,7.80
2022-12-01T05:47:57.484Z,7.85
2022-12-01T05:48:59.016Z,7.68
2022-12-01T05:50:05.197Z,7.60
2022-12-01T05:51:15.776Z,7.28
2022-12-01T05:52:17.220Z,7.10
2022-12-01T05:53:19.302Z,6.88
2022-12-01T05:54:21.314Z,7.20
2022-12-01T05:55:22.787Z,7.22
2022-12-01T05:56:24.335Z,7.35
2022-12-01T05:57:25.769Z,7.95
2022-12-01T05:58:27.162Z,8.05
2022-12-01T05:59:28.908Z,7.43
2022-12-01T06:00:30.423Z,7.90
2022-12-01T06:01:31.849Z,7.30
2022-12-01T06:02:33.250Z,7.60
2022-12-01T06:03:34.707Z,7.55
2022-12-01T06:04:36.573Z,7.93
2022-12-01T06:05:37.973Z,7.50
2022-12-01T06:06:39.431Z,7.10
2022-12-01T06:07:40.982Z,7.45
2022-12-01T06:08:42.440Z,8.05
2022-12-01T06:09:48.823Z,7.45
2022-12-01T06:10:50.384Z,7.20
2022-12-01T06:11:52.742Z,7.90
2022-12-01T06:12:54.294Z,7.43
2022-12-01T06:13:56.107Z,7.93
2022-12-01T06:14:57.592Z,7.35
2022-12-01T06:16:05.146Z,7.40
2022-12-01T06:17:07.853Z,7.75
2022-12-01T06:18:09.396Z,7.68
2022-12-01T06:19:11.350Z,7.40
2022-12-01T06:20:13.029Z,7.32
2022-12-01T06:21:14.448Z,7.18
2022-12-01T06:22:15.901Z,7.65
2022-12-01T06:23:17.349Z,8.07
2022-12-01T06:24:18.863Z,7.68
2022-12-01T06:25:20.524Z,8.07
2022-12-01T06:26:21.964Z,7.85
2022-12-01T06:27:24.213Z,7.32
2022-12-01T06:28:25.992Z,7.82
2022-12-01T06:29:27.454Z,7.35
2022-12-01T06:30:28.922Z,6.82
2022-12-01T06:31:30.381Z,7.60
2022-12-01T06:32:31.903Z,7.63
2022-12-01T06:33:33.393Z,7.72
2022-12-01T06:34:34.841Z,7.40
2022-12-01T06:35:37.151Z,7.47
2022-12-01T06:36:38.560Z,7.75
2022-12-01T06:37:39.993Z,7.00
2022-12-01T06:38:41.748Z,11.60
2022-12-01T06:39:43.575Z,13.43
2022-12-01T06:40:45.151Z,12.70
2022-12-01T06:41:46.744Z,13.70
2022-12-01T06:42:48.172Z,14.27
2022-12-01T06:43:49.933Z,11.48
2022-12-01T06:44:51.583Z,8.88
2022-12-01T06:45:57.784Z,8.45
2022-12-01T06:47:02.546Z,7.82
2022-12-01T06:48:04.028Z,8.48
2022-12-01T06:49:05.530Z,7.57
2022-12-01T06:50:09.883Z,8.02
2022-12-01T06:51:11.604Z,8.20
2022-12-01T06:52:13.044Z,7.78
2022-12-01T06:53:14.813Z,7.90
2022-12-01T06:54:17.862Z,7.15
2022-12-01T06:56:21.344Z,7.88
2022-12-01T06:57:23.094Z,6.95
2022-12-01T06:58:24.970Z,7.00
2022-12-01T06:59:26.752Z,6.90
2022-12-01T07:00:28.807Z,7.25
2022-12-01T07:01:30.583Z,7.15
2022-12-01T07:02:32.198Z,7.35
2022-12-01T07:03:33.669Z,8.18
2022-12-01T07:04:35.102Z,7.47
2022-12-01T07:05:36.792Z,8.05
2022-12-01T07:06:38.275Z,8.25
2022-12-01T07:07:39.977Z,8.02
2022-12-01T07:08:41.656Z,7.53
2022-12-01T07:09:43.092Z,7.93
2022-12-01T07:10:44.502Z,7.75
2022-12-01T07:11:45.942Z,7.93
2022-12-01T07:12:47.372Z,8.43
2022-12-01T07:13:50.337Z,7.82
2022-12-01T07:14:51.767Z,8.43
2022-12-01T07:15:53.165Z,8.80
2022-12-01T07:16:55.008Z,7.97
2022-12-01T07:17:56.530Z,7.63
2022-12-01T07:19:00.538Z,7.82
2022-12-01T07:20:02.015Z,7.82
2022-12-01T07:21:05.994Z,8.18
2022-12-01T07:22:07.431Z,8.00
2022-12-01T07:23:08.883Z,8.13
2022-12-01T07:24:12.859Z,8.18
2022-12-01T07:25:14.625Z,8.43
2022-12-01T07:26:18.348Z,8.27
2022-12-01T07:27:19.905Z,8.30
2022-12-01T07:28:21.491Z,8.20
2022-12-01T07:29:23.558Z,7.90
2022-12-01T07:30:28.423Z,7.38
2022-12-01T07:31:30.345Z,7.95
2022-12-01T07:32:32.290Z,8.50
2022-12-01T07:33:34.164Z,8.63
2022-12-01T07:34:35.707Z,8.10
2022-12-01T07:35:37.128Z,7.85
2022-12-01T07:36:38.803Z,7.57
2022-12-01T07:37:40.282Z,8.25
2022-12-01T07:38:42.190Z,8.15
2022-12-01T07:39:43.613Z,8.27
2022-12-01T07:40:45.099Z,8.13
2022-12-01T07:41:46.645Z,8.52
2022-12-01T07:42:48.104Z,8.32
2022-12-01T07:43:49.550Z,8.23
2022-12-01T07:44:50.986Z,8.27
2022-12-01T07:45:52.445Z,8.40
2022-12-01T07:46:54.248Z,8.63
2022-12-01T07:47:55.662Z,8.02
2022-12-01T07:48:57.726Z,8.25
2022-12-01T07:49:59.165Z,7.88
2022-12-01T07:51:00.716Z,8.73
2022-12-01T07:52:02.216Z,8.27
2022-12-01T07:53:03.826Z,9.07
2022-12-01T07:54:07.119Z,8.43
2022-12-01T07:55:08.688Z,8.57
2022-12-01T07:56:10.304Z,8.23
2022-12-01T07:57:14.716Z,8.40
2022-12-01T07:58:17.305Z,8.63
2022-12-01T07:59:18.713Z,8.05
2022-12-01T08:00:20.628Z,7.93
2022-12-01T08:01:23.721Z,7.75
2022-12-01T08:02:25.421Z,7.90
2022-12-01T08:03:26.950Z,8.05
2022-12-01T08:04:28.357Z,7.55
2022-12-01T08:05:29.757Z,8.65
2022-12-01T08:06:31.181Z,8.13
2022-12-01T08:07:32.656Z,7.65
2022-12-01T08:08:36.004Z,8.15
2022-12-01T08:09:37.406Z,7.88
2022-12-01T08:10:38.812Z,7.40
2022-12-01T08:11:40.436Z,8.13
2022-12-01T08:12:41.914Z,9.02
2022-12-01T08:13:44.499Z,7.78
2022-12-01T08:14:45.917Z,7.93
2022-12-01T08:15:47.386Z,8.18
2022-12-01T08:16:49.253Z,7.40
2022-12-01T08:17:53.675Z,7.72
2022-12-01T08:18:55.559Z,8.55
2022-12-01T08:19:56.962Z,7.65
2022-12-01T08:20:58.395Z,8.32
2022-12-01T08:21:59.831Z,8.18
2022-12-01T08:23:01.751Z,8.10
2022-12-01T08:24:04.349Z,8.50
2022-12-01T08:25:06.181Z,8.05
2022-12-01T08:26:12.751Z,8.95
2022-12-01T08:27:14.212Z,8.68
2022-12-01T08:28:15.947Z,8.63
2022-12-01T08:29:20.361Z,8.23
2022-12-01T08:30:22.979Z,7.85
2022-12-01T08:31:30.013Z,8.00
2022-12-01T08:32:31.594Z,7.70
2022-12-01T08:33:33.362Z,8.10
2022-12-01T08:34:38.632Z,8.23
2022-12-01T08:35:40.065Z,8.02
2022-12-01T08:36:41.475Z,8.32
2022-12-01T08:37:42.999Z,7.70
2022-12-01T08:38:46.286Z,8.00
2022-12-01T08:39:47.872Z,8.00
2022-12-01T08:40:49.414Z,8.30
2022-12-01T08:41:50.833Z,8.23
2022-12-01T08:42:53.362Z,7.63
2022-12-01T08:43:59.412Z,8.48
2022-12-01T08:45:01.606Z,8.20
2022-12-01T08:46:03.141Z,7.60
2022-12-01T08:47:04.745Z,7.85
2022-12-01T08:48:06.362Z,7.47
2022-12-01T08:49:07.833Z,7.40
2022-12-01T08:50:10.948Z,7.90
2022-12-01T08:51:14.984Z,7.97
2022-12-01T08:52:16.424Z,8.07
2022-12-01T08:53:17.895Z,8.00
2022-12-01T08:54:19.307Z,8.40
2022-12-01T08:55:21.952Z,8.68
2022-12-01T08:56:32.822Z,7.93
2022-12-01T08:57:34.267Z,7.53
2022-12-01T08:58:36.053Z,8.75
2022-12-01T08:59:37.519Z,8.20
2022-12-01T09:00:38.932Z,8.05
2022-12-01T09:01:52.563Z,8.15
2022-12-01T09:02:54.464Z,8.05
2022-12-01T09:04:08.293Z,8.80
2022-12-01T09:05:10.305Z,8.02
2022-12-01T09:06:20.903Z,8.60
2022-12-01T09:07:26.296Z,7.68
2022-12-01T09:08:31.561Z,7.97
2022-12-01T09:09:35.288Z,7.70
2022-12-01T09:10:36.746Z,8.25
2022-12-01T09:11:39.052Z,7.55
2022-12-01T09:12:40.571Z,8.35
2022-12-01T09:13:43.378Z,8.02
2022-12-01T09:14:49.594Z,8.52
2022-12-01T09:15:58.285Z,7.90
2022-12-01T09:16:59.778Z,7.65
2022-12-01T09:18:01.288Z,8.32
2022-12-01T09:19:03.043Z,8.18
2022-12-01T09:20:05.047Z,8.38
2022-12-01T09:21:14.887Z,7.97
2022-12-01T09:22:16.393Z,9.40
2022-12-01T09:23:18.216Z,9.05
2022-12-01T09:24:19.751Z,8.70
2022-12-01T09:25:21.156Z,8.38
2022-12-01T09:26:23.670Z,8.32
2022-12-01T09:27:25.546Z,8.60
2022-12-01T09:28:27.003Z,8.55
2022-12-01T09:29:28.547Z,8.82
2022-12-01T09:30:29.973Z,8.68
2022-12-01T09:31:31.468Z,8.52
2022-12-01T09:32:33.262Z,8.60
2022-12-01T09:33:34.976Z,8.35
2022-12-01T09:34:36.391Z,7.60
2022-12-01T09:35:38.190Z,7.80
2022-12-01T09:36:40.444Z,7.63
2022-12-01T09:37:42.302Z,7.82
2022-12-01T09:38:43.970Z,7.85
2022-12-01T09:39:45.468Z,7.50
2022-12-01T09:40:46.927Z,8.52
2022-12-01T09:42:04.997Z,8.13
2022-12-01T09:43:20.714Z,7.53
2022-12-01T09:44:42.046Z,7.72
2022-12-01T09:45:48.446Z,7.70
2022-12-01T09:47:14.496Z,7.70
2022-12-01T09:48:42.827Z,8.18
2022-12-01T09:49:59.046Z,8.95
2022-12-01T09:51:00.976Z,8.63
2022-12-01T09:52:02.511Z,7.93
2022-12-01T09:53:09.010Z,8.23
2022-12-01T09:54:13.454Z,7.80
2022-12-01T09:55:18.191Z,7.85
2022-12-01T09:56:28.946Z,7.68
2022-12-01T09:57:36.858Z,8.40
2022-12-01T09:58:38.845Z,8.65
2022-12-01T09:59:43.123Z,8.05
2022-12-01T10:00:45.942Z,8.23
2022-12-01T10:01:51.404Z,7.85
2022-12-01T10:02:56.837Z,8.18
2022-12-01T10:04:06.268Z,8.05
2022-12-01T10:05:16.871Z,7.50
2022-12-01T10:06:29.730Z,7.95
2022-12-01T10:07:40.166Z,7.53
2022-12-01T10:09:00.572Z,7.78
2022-12-01T10:10:14.350Z,7.50
2022-12-01T10:11:28.809Z,8.38
2022-12-01T10:12:33.462Z,8.75
2022-12-01T10:13:35.304Z,7.45
2022-12-01T10:14:37.757Z,7.90
2022-12-01T10:16:04.136Z,7.70
2022-12-01T10:17:35.996Z,7.93
2022-12-01T10:19:01.754Z,7.70
2022-12-01T10:20:15.210Z,7.80
2022-12-01T10:21:32.403Z,7.07
2022-12-01T10:23:06.267Z,8.27
2022-12-01T10:24:40.000Z,7.93
2022-12-01T10:26:59.904Z,7.50
2022-12-01T10:28:30.345Z,8.25
2022-12-01T10:29:59.098Z,7.57
2022-12-01T10:31:18.009Z,7.60
2022-12-01T10:32:28.020Z,8.45
2022-12-01T10:33:45.483Z,8.30
2022-12-01T10:34:48.268Z,8.15
2022-12-01T10:35:50.693Z,8.07
2022-12-01T10:36:52.794Z,7.80
2022-12-01T10:37:58.855Z,8.55
2022-12-01T10:39:02.598Z,8.75
2022-12-01T10:40:04.725Z,8.60
2022-12-01T10:41:13.789Z,8.68
2022-12-01T10:42:40.853Z,8.30
2022-12-01T10:43:47.069Z,8.73
2022-12-01T10:44:50.390Z,8.52
2022-12-01T10:45:52.391Z,7.70
2022-12-01T10:46:55.848Z,7.95
2022-12-01T10:48:15.591Z,8.52
2022-12-01T10:49:18.550Z,8.65
2022-12-01T10:50:28.158Z,8.10
2022-12-01T10:51:29.630Z,7.50
2022-12-01T10:52:34.272Z,8.32
2022-12-01T10:53:36.664Z,8.40
2022-12-01T10:54:40.824Z,8.25
2022-12-01T10:55:47.774Z,8.20
2022-12-01T10:56:55.471Z,7.93
2022-12-01T10:58:01.527Z,8.55
2022-12-01T10:59:34.272Z,8.65
2022-12-01T11:00:59.202Z,8.88
2022-12-01T11:02:04.179Z,7.95
2022-12-01T11:03:06.706Z,8.48
2022-12-01T11:04:45.645Z,7.60
2022-12-01T11:05:53.182Z,8.52
2022-12-01T11:06:55.239Z,8.82
2022-12-01T11:07:56.838Z,8.60
2022-12-01T11:09:04.017Z,7.28
2022-12-01T11:10:23.842Z,7.93
2022-12-01T11:11:34.376Z,7.75
2022-12-01T11:12:36.079Z,8.02
2022-12-01T11:13:37.850Z,7.65
2022-12-01T11:14:51.639Z,7.85
2022-12-01T11:15:58.687Z,7.75
2022-12-01T11:17:23.683Z,8.60
2022-12-01T11:18:27.982Z,7.18
2022-12-01T11:19:33.603Z,7.10
2022-12-01T11:20:38.530Z,7.90
2022-12-01T11:21:49.296Z,8.63
2022-12-01T11:22:50.766Z,7.88
2022-12-01T11:23:55.088Z,8.10
2022-12-01T11:24:58.633Z,8.80
2022-12-01T11:26:09.961Z,8.15
2022-12-01T11:27:21.573Z,8.05
2022-12-01T11:28:23.397Z,8.27
2022-12-01T11:29:29.346Z,9.43
2022-12-01T11:30:32.817Z,7.80
2022-12-01T11:31:48.006Z,7.25
2022-12-01T11:33:58.460Z,8.38
2022-12-01T11:35:04.262Z,7.95
2022-12-01T11:36:10.614Z,7.60
2022-12-01T11:37:19.010Z,8.85
2022-12-01T11:38:30.722Z,7.93
2022-12-01T11:39:36.418Z,7.88
2022-12-01T11:40:49.967Z,8.00
2022-12-01T11:41:57.049Z,7.95
2022-12-01T11:43:04.914Z,11.43
2022-12-01T11:44:43.213Z,12.07
2022-12-01T11:45:40.499Z,12.95
2022-12-01T11:46:50.203Z,13.77
2022-12-01T11:48:12.451Z,10.35
2022-12-01T11:49:22.567Z,9.98
2022-12-01T11:50:27.696Z,11.20
2022-12-01T11:51:37.498Z,11.70
2022-12-01T11:52:48.654Z,11.85
2022-12-01T11:54:05.892Z,10.45
2022-12-01T11:55:13.146Z,9.00
2022-12-01T11:56:23.678Z,8.55
2022-12-01T11:57:35.624Z,7.70
2022-12-01T11:58:37.193Z,8.00
2022-12-01T11:59:38.670Z,8.20
2022-12-01T12:00:52.013Z,8.05
2022-12-01T12:02:04.364Z,7.50
2022-12-01T12:03:38.053Z,8.00
2022-12-01T12:07:32.817Z,7.07
2022-12-01T12:08:52.941Z,7.75
2022-12-01T12:10:23.642Z,7.50
2022-12-01T12:11:39.421Z,7.38
2022-12-01T12:12:52.589Z,7.13
2022-12-01T12:14:20.517Z,6.70
2022-12-01T12:15:41.311Z,6.75
2022-12-01T12:16:45.766Z,7.80
2022-12-01T12:17:54.076Z,7.60
2022-12-01T12:19:14.196Z,7.72
2022-12-01T12:20:35.752Z,7.07
2022-12-01T12:21:46.157Z,7.32
2022-12-01T12:22:59.976Z,7.53
2022-12-01T12:24:20.304Z,7.43
2022-12-01T12:25:52.044Z,7.03
2022-12-01T12:27:15.275Z,7.20
2022-12-01T12:28:47.460Z,6.97
2022-12-01T12:30:12.126Z,7.32
2022-12-01T12:31:31.897Z,7.35
2022-12-01T12:33:05.251Z,6.47
2022-12-01T12:34:31.119Z,7.43
2022-12-01T12:35:50.882Z,6.60
2022-12-01T12:37:05.005Z,7.18
2022-12-01T12:38:25.273Z,7.72
2022-12-01T12:40:16.246Z,7.47
2022-12-01T12:41:39.738Z,6.70
2022-12-01T12:43:04.107Z,6.93
2022-12-01T12:44:39.243Z,7.50
2022-12-01T12:46:11.751Z,7.45
2022-12-01T12:47:36.614Z,6.88
2022-12-01T12:49:23.717Z,7.55
2022-12-01T12:50:44.893Z,8.18
2022-12-01T12:51:53.123Z,7.18
2022-12-01T12:52:59.879Z,11.32
2022-12-01T12:54:18.860Z,9.68
2022-12-01T12:55:28.401Z,7.43
2022-12-01T12:56:32.034Z,7.30
2022-12-01T12:57:37.483Z,7.43
2022-12-01T12:58:58.077Z,7.13
2022-12-01T13:00:04.947Z,6.93
2022-12-01T13:01:25.645Z,7.63
2022-12-01T13:02:33.505Z,6.82
2022-12-01T13:03:48.508Z,7.00
2022-12-01T13:04:52.749Z,7.20
2022-12-01T13:06:01.871Z,7.18
2022-12-01T13:08:35.854Z,5.82
2022-12-01T13:09:51.869Z,6.47
2022-12-01T13:11:22.917Z,7.30
2022-12-01T13:12:32.450Z,7.18
2022-12-01T13:13:42.147Z,6.45
2022-12-01T13:14:48.516Z,7.15
2022-12-01T13:15:53.325Z,6.57
2022-12-01T13:16:59.487Z,6.60
2022-12-01T13:18:25.509Z,6.80
2022-12-01T13:19:35.327Z,7.43
2022-12-01T13:20:38.501Z,6.45
2022-12-01T13:21:43.402Z,7.07
2022-12-01T13:22:46.504Z,6.63
2022-12-01T13:23:50.787Z,7.15
2022-12-01T13:24:52.214Z,6.70
2022-12-01T13:25:57.258Z,6.55
2022-12-01T13:27:07.504Z,6.68
2022-12-01T13:28:24.189Z,6.25
2022-12-01T13:29:27.541Z,6.68
2022-12-01T13:30:29.289Z,6.50
2022-12-01T13:31:45.568Z,5.75
2022-12-01T13:32:48.648Z,6.25
2022-12-01T13:35:21.384Z,6.03
2022-12-01T13:36:45.836Z,5.75
2022-12-01T13:37:45.478Z,6.38
2022-12-01T13:39:01.913Z,5.90
2022-12-01T13:40:20.154Z,5.97
2022-12-01T13:41:23.725Z,6.10
2022-12-01T13:42:26.914Z,6.15
2022-12-01T13:43:28.851Z,5.93
2022-12-01T13:44:38.239Z,5.65
2022-12-01T13:45:40.744Z,5.45
2022-12-01T13:46:42.185Z,5.82
2022-12-01T13:47:46.458Z,6.10
2022-12-01T13:48:48.146Z,6.38
2022-12-01T13:49:51.929Z,5.88
2022-12-01T13:50:57.746Z,5.70
2022-12-01T13:52:20.842Z,6.15
2022-12-01T13:53:31.341Z,5.63
2022-12-01T13:54:36.355Z,6.25
2022-12-01T13:56:08.016Z,6.35
2022-12-01T13:57:25.269Z,6.78
2022-12-01T13:58:35.878Z,9.73
2022-12-01T14:00:01.183Z,11.65
2022-12-01T14:01:21.232Z,13.02
2022-12-01T14:02:23.533Z,11.70
2022-12-01T14:03:37.344Z,11.90
2022-12-01T14:04:38.858Z,11.02
2022-12-01T14:05:40.213Z,9.20
2022-12-01T14:06:49.163Z,8.32
2022-12-01T14:09:02.758Z,7.22
2022-12-01T14:10:22.985Z,8.43
2022-12-01T14:11:27.451Z,7.72
2022-12-01T14:12:32.883Z,7.60
2022-12-01T14:13:50.781Z,7.00
2022-12-01T14:15:22.949Z,7.30
2022-12-01T14:16:25.229Z,6.45
2022-12-01T14:17:36.290Z,6.60
2022-12-01T14:18:44.233Z,7.53
2022-12-01T14:19:52.004Z,7.28
2022-12-01T14:20:53.731Z,6.80
2022-12-01T14:21:55.244Z,6.70
2022-12-01T14:23:43.393Z,6.90
2022-12-01T14:24:52.976Z,6.53
2022-12-01T14:26:22.662Z,6.90
2022-12-01T14:27:41.380Z,6.20
2022-12-01T14:29:01.167Z,8.20
2022-12-01T14:30:44.983Z,7.35
2022-12-01T14:31:52.187Z,7.70
2022-12-01T14:33:31.889Z,6.95
2022-12-01T14:34:34.811Z,6.47
2022-12-01T14:35:36.683Z,6.07
2022-12-01T14:36:40.979Z,5.80
2022-12-01T14:37:45.780Z,5.40
2022-12-01T14:38:49.096Z,4.70
2022-12-01T14:39:58.203Z,5.28
2022-12-01T14:42:40.694Z,5.03
2022-12-01T14:44:15.582Z,4.97
2022-12-01T14:45:22.710Z,5.05
2022-12-01T14:46:29.336Z,5.13
2022-12-01T14:47:41.974Z,5.50
2022-12-01T14:48:45.894Z,5.40
2022-12-01T14:49:47.272Z,5.40
2022-12-01T14:50:52.034Z,5.20
2022-12-01T14:52:04.329Z,5.32
2022-12-01T14:53:21.625Z,4.68
2022-12-01T14:54:34.843Z,5.15
2022-12-01T14:55:47.928Z,5.45
2022-12-01T14:56:53.012Z,5.43
2022-12-01T14:58:05.890Z,5.00
2022-12-01T14:59:20.114Z,5.15
2022-12-01T15:00:24.295Z,5.07
2022-12-01T15:01:33.895Z,5.20
2022-12-01T15:02:44.430Z,5.13